sensor_id;sensor_type;location;lat;lon;timestamp;pressure;altitude;pressure_sealevel;temperature;humidity
74982;BME280;63532;50.766;18.944;2024-02-16T05:47:19;99086.69;;;1.34;85.42
74982;BME280;63532;50.766;18.944;2024-02-16T05:50:23;99080.75;;;1.31;85.37
74982;BME280;63532;50.766;18.944;2024-02-16T05:53:28;99088.19;;;1.38;85.46
74982;BME280;63532;50.766;18.944;2024-02-16T05:56:32;99091.84;;;1.50;85.34
74982;BME280;63532;50.766;18.944;2024-02-16T05:59:39;99094.44;;;1.64;85.71
74982;BME280;63532;50.766;18.944;2024-02-16T06:02:47;99090.44;;;1.71;85.69
74982;BME280;63532;50.766;18.944;2024-02-16T06:05:51;99099.16;;;1.86;86.22
74982;BME280;63532;50.766;18.944;2024-02-16T06:08:56;99093.69;;;2.02;85.71
74982;BME280;63532;50.766;18.944;2024-02-16T06:12:02;99102.47;;;2.02;85.26
74982;BME280;63532;50.766;18.944;2024-02-16T06:15:08;99109.13;;;1.95;85.18
74982;BME280;63532;50.766;18.944;2024-02-16T06:18:14;99107.03;;;2.00;85.54
74982;BME280;63532;50.766;18.944;2024-02-16T06:21:19;99112.97;;;2.04;85.42
74982;BME280;63532;50.766;18.944;2024-02-16T06:24:23;99112.56;;;2.10;85.25
74982;BME280;63532;50.766;18.944;2024-02-16T06:27:28;99115.97;;;2.25;86.15
74982;BME280;63532;50.766;18.944;2024-02-16T06:30:32;99129.97;;;2.39;86.29
74982;BME280;63532;50.766;18.944;2024-02-16T06:33:39;99136.53;;;2.47;85.53
74982;BME280;63532;50.766;18.944;2024-02-16T06:36:43;99135.41;;;2.38;85.18
74982;BME280;63532;50.766;18.944;2024-02-16T06:39:48;99131.66;;;2.40;85.21
74982;BME280;63532;50.766;18.944;2024-02-16T06:42:52;99139.94;;;2.36;85.55
74982;BME280;63532;50.766;18.944;2024-02-16T06:45:57;99136.56;;;2.34;85.66
74982;BME280;63532;50.766;18.944;2024-02-16T06:49:03;99139.09;;;2.48;86.17
74982;BME280;63532;50.766;18.944;2024-02-16T06:52:08;99136.78;;;2.56;85.47
74982;BME280;63532;50.766;18.944;2024-02-16T06:55:13;99145.03;;;2.64;85.90
74982;BME280;63532;50.766;18.944;2024-02-16T06:58:17;99138.44;;;2.83;85.83
74982;BME280;63532;50.766;18.944;2024-02-16T07:01:22;99136.81;;;3.05;85.71
74982;BME280;63532;50.766;18.944;2024-02-16T07:04:30;99136.50;;;3.23;86.07
74982;BME280;63532;50.766;18.944;2024-02-16T07:07:34;99123.19;;;3.35;86.04
74982;BME280;63532;50.766;18.944;2024-02-16T07:10:39;99137.22;;;3.61;85.23
74982;BME280;63532;50.766;18.944;2024-02-16T07:13:44;99128.47;;;3.72;85.51
74982;BME280;63532;50.766;18.944;2024-02-16T17:29:36;98958.59;;;6.40;75.63
74982;BME280;63532;50.766;18.944;2024-02-16T17:32:41;98965.03;;;6.38;75.39
74982;BME280;63532;50.766;18.944;2024-02-16T17:35:45;98959.38;;;6.31;75.13
74982;BME280;63532;50.766;18.944;2024-02-16T17:38:50;98970.00;;;6.22;75.74
74982;BME280;63532;50.766;18.944;2024-02-16T17:41:56;98954.78;;;6.12;75.62
74982;BME280;63532;50.766;18.944;2024-02-16T17:45:02;98964.31;;;6.05;75.59
74982;BME280;63532;50.766;18.944;2024-02-16T17:48:09;98976.06;;;6.03;76.06
74982;BME280;63532;50.766;18.944;2024-02-16T17:51:15;98968.84;;;6.14;76.05
74982;BME280;63532;50.766;18.944;2024-02-16T17:54:19;98969.47;;;6.28;75.35
74982;BME280;63532;50.766;18.944;2024-02-16T17:57:24;98966.09;;;6.26;75.64
74982;BME280;63532;50.766;18.944;2024-02-16T18:00:30;98970.88;;;6.32;75.54
74982;BME280;63532;50.766;18.944;2024-02-16T18:03:35;98963.91;;;6.40;75.74
74982;BME280;63532;50.766;18.944;2024-02-16T18:06:40;98959.50;;;6.60;75.69
74982;BME280;63532;50.766;18.944;2024-02-16T18:09:46;98960.22;;;6.72;74.88
74982;BME280;63532;50.766;18.944;2024-02-16T18:12:50;98967.13;;;6.74;75.21
74982;BME280;63532;50.766;18.944;2024-02-16T18:15:56;98968.53;;;6.78;75.12
74982;BME280;63532;50.766;18.944;2024-02-16T18:19:02;98955.38;;;6.86;75.28
74982;BME280;63532;50.766;18.944;2024-02-16T18:22:07;98977.56;;;6.97;75.11
74982;BME280;63532;50.766;18.944;2024-02-16T18:25:12;98960.63;;;7.36;75.28
74982;BME280;63532;50.766;18.944;2024-02-16T18:28:16;98969.50;;;7.56;74.37
74982;BME280;63532;50.766;18.944;2024-02-16T18:31:32;98969.50;;;7.66;74.41
74982;BME280;63532;50.766;18.944;2024-02-16T18:34:38;98959.19;;;7.80;74.37
74982;BME280;63532;50.766;18.944;2024-02-16T18:37:45;98960.19;;;7.89;74.04
74982;BME280;63532;50.766;18.944;2024-02-16T18:40:50;98959.91;;;7.82;74.29
74982;BME280;63532;50.766;18.944;2024-02-16T18:43:54;98954.03;;;7.79;74.33
74982;BME280;63532;50.766;18.944;2024-02-16T18:47:00;98959.91;;;7.82;74.35
74982;BME280;63532;50.766;18.944;2024-02-16T18:50:06;98959.47;;;7.87;74.73
74982;BME280;63532;50.766;18.944;2024-02-16T18:53:13;98960.31;;;7.97;74.46
74982;BME280;63532;50.766;18.944;2024-02-16T18:56:17;98963.00;;;7.97;74.62
74982;BME280;63532;50.766;18.944;2024-02-16T18:59:22;98964.69;;;7.98;74.52
74982;BME280;63532;50.766;18.944;2024-02-16T19:02:28;98955.50;;;8.10;74.32
74982;BME280;63532;50.766;18.944;2024-02-16T19:05:32;98959.84;;;8.21;74.21
74982;BME280;63532;50.766;18.944;2024-02-16T19:08:37;98956.41;;;8.29;74.32
74982;BME280;63532;50.766;18.944;2024-02-16T19:11:41;98959.41;;;8.35;74.21
74982;BME280;63532;50.766;18.944;2024-02-16T19:14:46;98948.63;;;8.45;74.01
74982;BME280;63532;50.766;18.944;2024-02-16T19:17:52;98951.44;;;8.53;74.06
74982;BME280;63532;50.766;18.944;2024-02-16T19:20:56;98954.97;;;8.53;74.04
74982;BME280;63532;50.766;18.944;2024-02-16T19:24:01;98942.00;;;8.49;73.90
74982;BME280;63532;50.766;18.944;2024-02-16T19:27:07;98960.03;;;8.47;74.13
74982;BME280;63532;50.766;18.944;2024-02-16T19:30:12;98961.50;;;8.41;74.31
74982;BME280;63532;50.766;18.944;2024-02-16T19:33:19;98969.38;;;8.43;74.28
74982;BME280;63532;50.766;18.944;2024-02-16T19:36:24;98959.81;;;8.40;74.27
74982;BME280;63532;50.766;18.944;2024-02-16T19:39:28;98957.84;;;8.42;73.96
74982;BME280;63532;50.766;18.944;2024-02-16T19:42:33;98955.69;;;8.46;74.40
74982;BME280;63532;50.766;18.944;2024-02-16T19:45:38;98958.34;;;8.46;74.17
74982;BME280;63532;50.766;18.944;2024-02-16T19:48:44;98961.66;;;8.40;74.16
74982;BME280;63532;50.766;18.944;2024-02-16T19:51:49;98960.53;;;8.33;74.46
74982;BME280;63532;50.766;18.944;2024-02-16T19:54:54;98947.84;;;8.35;74.41
74982;BME280;63532;50.766;18.944;2024-02-16T19:58:01;98962.91;;;8.36;74.52
74982;BME280;63532;50.766;18.944;2024-02-16T20:01:05;98963.47;;;8.30;74.64
74982;BME280;63532;50.766;18.944;2024-02-16T20:04:11;98963.47;;;8.30;74.44
74982;BME280;63532;50.766;18.944;2024-02-16T20:07:17;98963.75;;;8.26;74.45
74982;BME280;63532;50.766;18.944;2024-02-16T20:10:26;98962.19;;;8.24;74.32
74982;BME280;63532;50.766;18.944;2024-02-16T20:13:32;98958.00;;;8.21;74.76
74982;BME280;63532;50.766;18.944;2024-02-16T20:16:37;98961.34;;;8.23;74.85
74982;BME280;63532;50.766;18.944;2024-02-16T20:19:43;98964.72;;;8.25;74.42
74982;BME280;63532;50.766;18.944;2024-02-16T20:22:48;98953.09;;;8.17;74.61
74982;BME280;63532;50.766;18.944;2024-02-16T20:25:52;98960.84;;;8.20;74.50
74982;BME280;63532;50.766;18.944;2024-02-16T20:28:57;98971.38;;;8.21;74.80
74982;BME280;63532;50.766;18.944;2024-02-16T20:32:02;98967.03;;;8.20;74.91
74982;BME280;63532;50.766;18.944;2024-02-16T20:35:09;98964.34;;;8.20;74.75
74982;BME280;63532;50.766;18.944;2024-02-16T20:38:14;98972.38;;;8.20;74.81
74982;BME280;63532;50.766;18.944;2024-02-16T20:41:18;98977.88;;;8.19;74.30
74982;BME280;63532;50.766;18.944;2024-02-16T20:44:23;98971.41;;;8.12;74.78
74982;BME280;63532;50.766;18.944;2024-02-16T20:47:27;98971.69;;;8.09;74.59
74982;BME280;63532;50.766;18.944;2024-02-16T20:50:37;98974.78;;;8.04;74.79
74982;BME280;63532;50.766;18.944;2024-02-16T20:53:41;98971.13;;;8.05;74.91
74982;BME280;63532;50.766;18.944;2024-02-16T20:56:46;98979.00;;;8.16;74.52
74982;BME280;63532;50.766;18.944;2024-02-16T20:59:51;98970.53;;;8.21;74.59
